Latest Weather Observations for Truscott

IDD60801

Issued at 7:31 am CST Wednesday 2 September 2015 (issued every 30 minutes, with the page automatically refreshed every 10 minutes)

About weather observations | Map of weather stations | Latest weather observations for NT | Other Formats
Station Details ID: 001020 Name: TRUSCOTT Lat: -14.09 Lon: 126.39 Height: 51.0 m
Data from the previous 72 hours. | See also: Recent months at Truscott
Date/Time
CST
Temp
°C
App
Temp
°C
Dew
Point
Rel
Hum
%
Delta-T
°C
Wind Press
QNH
hPa
Press
MSL
hPa
Rain
since 9 am
mm
Dir
 
Spd
km/h
Gust
km/h
Spd
kts
Gust
kts
02/07:30am 21.3 22.7 17.9 81 2.1 SSW 7 9 4 5 1015.2 1014.8 0.0
02/07:00am 21.2 22.6 17.8 81 2.1 SSW 7 9 4 5 1014.7 - 0.0
02/06:30am 21.4 22.6 18.2 82 2.0 SW 9 11 5 6 1014.3 - 0.0
02/06:00am 21.5 23.0 18.9 85 1.6 SW 9 11 5 6 1013.9 - 0.0
02/05:30am 22.1 23.7 19.1 83 1.9 SW 9 11 5 6 1013.8 - 0.0
02/05:00am 22.9 24.6 19.3 80 2.3 W 9 13 5 7 1013.8 - 0.0
02/04:30am 23.2 24.4 19.1 78 2.6 WSW 11 15 6 8 1013.8 1013.3 0.0
02/04:00am 23.3 24.6 19.2 78 2.6 WSW 11 13 6 7 1013.9 - 0.0
02/03:30am 23.5 24.8 19.4 78 2.6 WSW 11 15 6 8 1013.9 - 0.0
02/03:00am 23.5 25.3 19.6 79 2.5 WSW 9 13 5 7 1013.8 - 0.0
02/02:30am 23.6 25.2 19.9 80 2.4 WSW 11 15 6 8 1014.0 - 0.0
02/02:09am 23.8 25.9 20.1 80 2.4 WSW 9 13 5 7 1014.1 - 0.0
02/02:00am 23.9 25.9 20.0 79 2.5 WSW 9 13 5 7 1014.2 - 0.0
02/01:50am 23.9 25.9 20.0 79 2.5 WSW 9 13 5 7 1014.3 - 0.0
02/01:30am 24.2 26.2 19.9 77 2.8 WSW 9 15 5 8 1014.5 1014.0 0.0
02/01:00am 24.4 26.0 19.9 76 2.9 WSW 11 15 6 8 1014.7 - 0.0
02/12:30am 24.6 25.9 19.4 73 3.3 WSW 11 15 6 8 1014.9 - 0.0
02/12:00am 24.8 26.3 19.8 74 3.2 W 11 17 6 9 1014.9 - 0.0
 
Date/Time
CST
Temp
°C
App
Temp
°C
Dew
Point
Rel
Hum
%
Delta-T
°C
Wind Press
QNH
hPa
Press
MSL
hPa
Rain
since 9 am
mm
Dir
 
Spd
km/h
Gust
km/h
Spd
kts
Gust
kts
01/11:30pm 24.7 26.2 19.8 74 3.2 W 11 15 6 8 1014.8 - 0.0
01/11:00pm 24.9 26.0 19.7 73 3.4 W 13 19 7 10 1014.8 - 0.0
01/10:30pm 24.8 26.3 19.8 74 3.2 W 11 15 6 8 1014.7 1014.2 0.0
01/10:00pm 25.1 25.9 19.9 73 3.4 W 15 20 8 11 1014.4 - 0.0
01/09:30pm 25.0 25.8 19.8 73 3.4 W 15 20 8 11 1014.2 - 0.0
01/09:00pm 25.2 26.0 19.8 72 3.5 W 15 19 8 10 1014.0 - 0.0
01/08:30pm 25.4 26.4 19.5 70 3.8 W 13 17 7 9 1013.7 - 0.0
01/08:00pm 25.7 26.3 18.6 65 4.5 W 13 17 7 9 1013.2 - 0.0
01/07:30pm 26.1 26.1 18.0 61 5.1 W 15 20 8 11 1012.8 1012.3 0.0
01/07:00pm 26.8 26.6 17.6 57 5.8 W 15 20 8 11 1012.5 - 0.0
01/06:30pm 28.1 27.0 16.4 49 7.3 W 17 24 9 13 1012.3 - 0.0
01/06:00pm 28.9 26.4 13.6 39 9.1 W 19 28 10 15 1012.1 - 0.0
01/05:30pm 29.7 27.7 15.0 40 9.0 W 19 30 10 16 1011.9 - 0.0
01/05:00pm 30.0 27.6 14.5 38 9.4 W 20 33 11 18 1011.8 - 0.0
01/04:30pm 30.4 28.2 14.9 39 9.5 W 20 32 11 17 1011.8 1011.3 0.0
01/04:00pm 30.4 28.4 14.9 39 9.5 W 19 28 10 15 1012.0 - 0.0
01/03:30pm 30.2 28.2 15.5 41 9.1 W 20 30 11 16 1012.2 - 0.0
01/03:00pm 30.5 28.5 15.4 40 9.3 WNW 20 30 11 16 1012.4 - 0.0
01/02:30pm 30.4 27.8 14.9 39 9.5 W 22 33 12 18 1012.8 - 0.0
01/02:06pm 29.9 27.6 15.6 42 8.8 W 22 35 12 19 1013.1 - 0.0
01/02:00pm 29.7 27.3 14.3 39 9.3 W 20 35 11 19 1013.1 - 0.0
01/01:53pm 30.2 28.1 15.1 40 9.3 W 20 32 11 17 1013.2 - 0.0
01/01:30pm 29.7 27.0 14.7 40 9.1 W 22 32 12 17 1013.6 1013.1 0.0
01/01:00pm 29.4 26.3 14.4 40 9.1 WNW 24 32 13 17 1014.0 - 0.0
01/12:30pm 29.2 26.6 15.0 42 8.7 W 22 32 12 17 1014.5 - 0.0
01/12:00pm 28.8 27.3 16.4 47 7.7 WNW 19 26 10 14 1014.8 - 0.0
01/11:30am 28.8 27.6 17.0 49 7.4 WNW 19 32 10 17 1015.1 - 0.0
01/11:00am 28.2 27.3 16.8 50 7.1 W 17 24 9 13 1015.2 - 0.0
01/10:30am 28.2 27.4 17.1 51 7.0 W 17 24 9 13 1015.3 1014.9 0.0
01/10:00am 27.7 26.8 16.9 51 6.8 W 17 26 9 14 1015.2 - 0.0
01/09:30am 27.1 27.0 17.0 54 6.3 WSW 13 20 7 11 1015.2 - 0.0
01/09:00am 26.3 26.2 17.9 60 5.3 W 15 24 8 13 1015.2 - 0.0
01/08:30am 25.6 26.9 18.5 65 4.5 WSW 9 13 5 7 1015.0 - 0.0
01/08:00am 24.3 25.7 18.7 71 3.6 WSW 9 13 5 7 1014.6 - 0.0
01/07:30am 23.1 25.1 19.1 78 2.5 SW 7 9 4 5 1014.3 1013.8 0.0
01/07:00am 23.0 24.9 19.0 78 2.5 SW 7 11 4 6 1013.9 - 0.0
01/06:30am 23.1 24.6 18.8 77 2.7 WSW 9 11 5 6 1013.4 - 0.0
01/06:00am 23.2 25.1 18.9 77 2.7 WSW 7 9 4 5 1013.2 - 0.0
01/05:30am 23.2 25.0 18.7 76 2.8 WSW 7 7 4 4 1012.9 - 0.0
01/05:00am 23.6 25.5 18.9 75 3.0 SW 7 9 4 5 1012.8 - 0.0
01/04:30am 23.8 25.4 19.1 75 3.0 SW 9 11 5 6 1012.8 1012.3 0.0
01/04:00am 23.9 25.9 19.2 75 3.0 SW 7 11 4 6 1012.8 - 0.0
01/03:30am 24.1 26.3 19.6 76 2.9 WSW 7 9 4 5 1013.1 - 0.0
01/03:00am 24.4 26.4 19.9 76 2.9 WSW 9 11 5 6 1013.1 - 0.0
01/02:30am 24.6 26.5 19.7 74 3.2 W 9 13 5 7 1013.3 - 0.0
01/02:00am 24.9 26.3 19.5 72 3.5 WSW 11 15 6 8 1013.6 - 0.0
01/01:30am 25.0 26.4 19.6 72 3.5 W 11 15 6 8 1013.9 1013.4 0.0
01/01:00am 25.1 26.9 19.5 71 3.6 WSW 9 15 5 8 1014.2 - 0.0
01/12:30am 25.4 26.6 19.8 71 3.6 WSW 13 19 7 10 1014.2 - 0.0
01/12:00am 25.4 27.2 20.4 74 3.3 WSW 11 17 6 9 1014.4 - 0.0
 
Date/Time
CST
Temp
°C
App
Temp
°C
Dew
Point
Rel
Hum
%
Delta-T
°C
Wind Press
QNH
hPa
Press
MSL
hPa
Rain
since 9 am
mm
Dir
 
Spd
km/h
Gust
km/h
Spd
kts
Gust
kts
31/11:30pm 25.6 27.1 20.6 74 3.3 W 13 20 7 11 1014.4 - 0.0
31/11:00pm 25.7 27.3 20.7 74 3.3 W 13 19 7 10 1014.4 - 0.0
31/10:30pm 26.0 27.2 20.6 72 3.5 W 15 22 8 12 1014.3 1013.8 0.0
31/10:00pm 25.9 27.2 20.9 74 3.3 W 15 22 8 12 1014.3 - 0.0
31/09:40pm 25.9 28.1 21.1 75 3.2 W 11 17 6 9 1014.2 - 0.0
31/09:30pm 25.9 27.4 21.3 76 3.1 W 15 20 8 11 1014.1 - 0.0
31/09:24pm 25.9 27.8 21.3 76 3.1 W 13 20 7 11 1014.1 - 0.0
31/09:00pm 25.9 27.3 21.1 75 3.2 W 15 20 8 11 1013.9 - 0.0
31/08:30pm 26.1 27.9 21.1 74 3.3 W 13 20 7 11 1013.7 - 0.0
31/08:00pm 26.3 27.6 20.8 71 3.6 W 15 24 8 13 1013.5 - 0.0
31/07:30pm 26.5 27.3 20.6 70 3.9 W 17 24 9 13 1013.2 1012.7 0.0
31/07:00pm 27.0 27.0 20.1 66 4.5 W 20 28 11 15 1013.1 - 0.0
31/06:30pm 28.0 27.5 19.0 58 5.8 W 20 28 11 15 1012.8 - 0.0
31/06:00pm 28.9 29.7 20.6 61 5.5 WNW 17 22 9 12 1012.7 - 0.0
31/05:30pm 30.2 29.4 18.0 48 7.8 WNW 19 26 10 14 1012.5 - 0.0
31/05:00pm 30.4 30.3 18.8 50 7.5 NW 17 26 9 14 1012.3 - 0.0
31/04:30pm 31.1 30.7 18.1 46 8.4 NW 17 28 9 15 1012.2 1011.7 0.0
31/04:00pm 31.6 32.1 19.2 47 8.1 NW 15 26 8 14 1012.4 - 0.0
31/03:30pm 31.2 31.8 20.2 52 7.3 NNW 17 28 9 15 1012.6 - 0.0
31/03:00pm 31.0 31.0 19.7 51 7.4 WNW 19 26 10 14 1013.0 - 0.0
31/02:30pm 30.5 30.8 20.4 54 6.7 NNW 19 26 10 14 1013.5 - 0.0
31/02:00pm 30.4 30.7 20.3 54 6.7 NNW 19 28 10 15 1013.7 - 0.0
31/01:30pm 29.3 29.3 21.0 61 5.5 N 22 30 12 16 1014.1 1013.6 0.0
31/01:00pm 29.7 30.7 22.2 64 5.1 N 20 28 11 15 1014.4 - 0.0
31/12:30pm 30.2 29.8 18.9 50 7.3 NNW 19 26 10 14 - - 0.0
31/12:00pm 31.0 30.9 18.7 48 8.0 NW 17 24 9 13 1015.2 - 0.0
31/11:30am 30.3 30.7 18.1 48 7.8 W 13 20 7 11 1015.3 - 0.0
31/11:00am 29.9 30.0 17.4 47 7.9 WSW 13 19 7 10 1015.6 - 0.0
31/10:30am 29.5 29.3 18.6 52 7.0 SSW 17 26 9 14 1015.6 1015.2 0.0
31/10:00am 28.3 28.2 18.7 56 6.2 SW 17 22 9 12 1015.4 - 0.0
31/09:30am 26.8 27.5 19.7 65 4.6 SSW 15 20 8 11 1015.3 - 0.0
31/09:00am 26.1 27.9 20.4 71 3.7 SW 11 17 6 9 1015.1 - 0.0
31/08:30am 26.3 28.8 21.1 73 3.4 WSW 9 15 5 8 1015.0 - 0.0
31/08:00am 24.5 27.0 21.0 81 2.3 SW 9 13 5 7 1014.7 - 0.0
31/07:30am 23.8 26.1 21.3 86 1.6 SW 11 15 6 8 1014.2 1013.7 0.0
31/07:00am 23.6 25.8 21.1 86 1.6 SW 11 15 6 8 1014.0 - 0.0
31/06:30am 23.6 26.0 21.5 88 1.4 SW 11 13 6 7 1013.6 - 0.0
31/06:00am 24.0 26.3 21.3 85 1.8 SW 11 13 6 7 1013.4 - 0.0
31/05:30am 24.2 26.4 21.1 83 2.0 SW 11 15 6 8 1013.3 - 0.0
31/05:00am 24.2 26.7 21.1 83 2.0 SW 9 15 5 8 1013.2 - 0.0
31/04:30am 24.2 26.5 21.3 84 1.9 SW 11 13 6 7 1013.4 1012.9 0.0
31/04:00am 24.2 27.2 21.9 87 1.5 SW 9 11 5 6 1013.7 - 0.0
31/03:30am 23.9 27.3 22.0 89 1.3 WSW 7 9 4 5 1013.9 - 0.0
31/03:00am 24.0 27.6 22.3 90 1.1 WSW 7 9 4 5 1014.2 - 0.0
31/02:30am 24.2 27.9 22.3 89 1.3 WSW 6 7 3 4 1014.5 - 0.0
31/02:00am 24.4 27.9 21.9 86 1.7 WSW 6 7 3 4 1014.9 - 0.0
31/01:30am 24.7 28.1 22.0 85 1.8 WSW 7 9 4 5 1015.3 1014.9 0.0
31/01:00am 24.8 28.4 22.3 86 1.7 WSW 7 11 4 6 1015.6 - 0.0
31/12:30am 24.9 28.5 22.4 86 1.7 W 7 9 4 5 1015.6 - 0.0
31/12:00am 25.1 28.4 22.6 86 1.7 WSW 9 11 5 6 1015.9 - 0.0
 
Date/Time
CST
Temp
°C
App
Temp
°C
Dew
Point
Rel
Hum
%
Delta-T
°C
Wind Press
QNH
hPa
Press
MSL
hPa
Rain
since 9 am
mm
Dir
 
Spd
km/h
Gust
km/h
Spd
kts
Gust
kts
30/11:30pm 25.1 28.3 22.4 85 1.8 W 9 11 5 6 1016.0 - 0.0
30/11:22pm 25.1 28.4 22.6 86 1.7 W 9 11 5 6 1016.0 - 0.0
30/11:05pm 25.1 28.8 22.6 86 1.7 W 7 9 4 5 1016.1 - 0.0
30/11:00pm 24.9 28.5 22.4 86 1.7 W 7 9 4 5 1016.0 - 0.0
30/10:30pm 25.0 29.7 21.9 83 2.1 CALM 0 0 0 0 1016.0 1015.6 0.0
30/10:00pm 25.6 29.1 21.9 80 2.5 W 6 9 3 5 1015.8 - 0.0
30/09:30pm 25.8 29.1 21.9 79 2.6 W 7 9 4 5 1015.6 - 0.0
30/09:00pm 26.1 28.5 20.9 73 3.4 W 9 11 5 6 1015.3 - 0.0
30/08:30pm 26.1 29.0 20.7 72 3.6 WNW 6 9 3 5 1015.1 - 0.0
30/08:00pm 26.4 28.8 20.0 68 4.2 NW 7 9 4 5 1014.7 - 0.0
30/07:30pm 26.8 28.8 19.2 63 4.9 NNW 7 11 4 6 1014.3 1013.8 0.0
30/07:00pm 27.2 28.4 18.2 58 5.7 NW 9 13 5 7 1014.0 - 0.0
30/06:30pm 27.8 28.1 17.9 54 6.3 NNW 13 17 7 9 1013.8 - 0.0
30/06:00pm 28.5 28.7 17.7 52 6.9 NW 13 17 7 9 1013.5 - 0.0
30/05:30pm 28.9 29.3 18.1 52 6.9 NW 13 17 7 9 1013.4 - 0.0
30/05:00pm 28.6 29.4 19.0 56 6.2 NNW 13 19 7 10 1013.3 - 0.0
30/04:30pm 28.8 28.9 19.1 55 6.3 N 17 26 9 14 1013.1 1012.6 0.0
30/04:00pm 29.0 28.9 19.9 58 6.0 NNW 20 32 11 17 1013.3 - 0.0
30/03:30pm 29.6 28.9 18.7 52 7.0 N 20 30 11 16 1013.5 - 0.0
30/03:00pm 29.9 29.4 19.0 52 7.1 NNW 20 30 11 16 1013.5 - 0.0
30/02:30pm 30.2 29.5 18.6 49 7.5 NNW 20 28 11 15 1013.8 - 0.0
30/02:00pm 30.3 29.9 19.0 50 7.3 NNW 19 28 10 15 1014.1 - 0.0
30/01:30pm 30.8 30.1 18.2 47 8.1 NNW 19 28 10 15 1014.5 1014.0 0.0
30/01:00pm 31.5 31.5 18.1 44 8.6 N 15 22 8 12 1014.8 - 0.0
30/12:30pm 31.0 31.0 18.0 45 8.4 N 15 24 8 13 1015.3 - 0.0
30/12:00pm 31.0 31.9 18.4 47 8.1 NNW 11 20 6 11 1015.8 - 0.0
30/11:30am 31.0 32.1 17.0 43 8.9 ESE 7 13 4 7 1016.3 - 0.0
30/11:00am 30.2 31.1 17.6 46 8.0 SSW 9 17 5 9 1016.6 - 0.0
30/10:30am 29.5 30.6 18.0 50 7.3 SSW 9 15 5 8 1016.7 1016.3 0.0
30/10:00am 28.8 30.7 18.6 54 6.6 SSE 6 13 3 7 1016.7 - 0.0
30/09:30am 27.7 29.0 18.4 57 5.9 S 9 17 5 9 1016.4 - 0.0

Other Formats:

Comma delimited format used in spreadsheet applications
http://www.bom.gov.au/fwo/IDD60801/IDD60801.95101.axf

JavaScript Object Notation format (JSON) in row-major order
http://www.bom.gov.au/fwo/IDD60801/IDD60801.95101.json